sensor_id;sensor_type;location;lat;lon;timestamp;temperature;humidity
30134;DHT22;16946;49.984;10.672;2024-02-23T00:00:25;9.90;19.80
30134;DHT22;16946;49.984;10.672;2024-02-23T00:00:56;9.90;23.20
30134;DHT22;16946;49.984;10.672;2024-02-23T00:01:26;9.90;26.90
30134;DHT22;16946;49.984;10.672;2024-02-23T00:01:57;9.90;25.00
30134;DHT22;16946;49.984;10.672;2024-02-23T00:02:28;9.90;31.30
30134;DHT22;16946;49.984;10.672;2024-02-23T00:02:58;9.80;30.00
30134;DHT22;16946;49.984;10.672;2024-02-23T00:03:29;9.80;30.60
30134;DHT22;16946;49.984;10.672;2024-02-23T00:03:59;9.80;36.90
30134;DHT22;16946;49.984;10.672;2024-02-23T00:04:30;9.80;21.70
30134;DHT22;16946;49.984;10.672;2024-02-23T00:05:00;9.80;21.40
30134;DHT22;16946;49.984;10.672;2024-02-23T00:05:31;9.80;24.50
30134;DHT22;16946;49.984;10.672;2024-02-23T00:06:02;9.80;21.70
30134;DHT22;16946;49.984;10.672;2024-02-23T00:06:33;9.80;22.60
30134;DHT22;16946;49.984;10.672;2024-02-23T00:07:04;9.80;32.10
30134;DHT22;16946;49.984;10.672;2024-02-23T00:07:34;9.80;38.70
30134;DHT22;16946;49.984;10.672;2024-02-23T00:08:06;9.80;28.00
30134;DHT22;16946;49.984;10.672;2024-02-23T00:08:37;9.80;26.30
30134;DHT22;16946;49.984;10.672;2024-02-23T00:09:08;9.80;32.10
30134;DHT22;16946;49.984;10.672;2024-02-23T00:09:38;9.80;28.20
30134;DHT22;16946;49.984;10.672;2024-02-23T00:10:09;9.80;27.80
30134;DHT22;16946;49.984;10.672;2024-02-23T00:10:40;9.80;27.90
30134;DHT22;16946;49.984;10.672;2024-02-23T00:11:11;9.80;27.10
30134;DHT22;16946;49.984;10.672;2024-02-23T00:11:41;9.80;20.90
30134;DHT22;16946;49.984;10.672;2024-02-23T00:12:14;9.80;19.20
30134;DHT22;16946;49.984;10.672;2024-02-23T00:12:45;9.80;24.10
30134;DHT22;16946;49.984;10.672;2024-02-23T00:13:17;9.80;14.80
30134;DHT22;16946;49.984;10.672;2024-02-23T00:13:48;9.70;25.40
30134;DHT22;16946;49.984;10.672;2024-02-23T00:14:18;9.70;24.10
30134;DHT22;16946;49.984;10.672;2024-02-23T00:14:49;9.70;30.80
30134;DHT22;16946;49.984;10.672;2024-02-23T00:15:21;9.80;33.20
30134;DHT22;16946;49.984;10.672;2024-02-23T00:15:51;9.70;32.70
30134;DHT22;16946;49.984;10.672;2024-02-23T00:16:22;9.80;35.50
30134;DHT22;16946;49.984;10.672;2024-02-23T00:16:52;9.80;38.40
30134;DHT22;16946;49.984;10.672;2024-02-23T00:17:23;9.70;35.70
30134;DHT22;16946;49.984;10.672;2024-02-23T00:17:54;9.80;37.00
30134;DHT22;16946;49.984;10.672;2024-02-23T00:18:25;9.70;29.60
30134;DHT22;16946;49.984;10.672;2024-02-23T00:18:55;9.70;30.70
30134;DHT22;16946;49.984;10.672;2024-02-23T00:19:26;9.70;33.70
30134;DHT22;16946;49.984;10.672;2024-02-23T00:19:56;9.60;18.00
30134;DHT22;16946;49.984;10.672;2024-02-23T00:20:27;9.60;22.20
30134;DHT22;16946;49.984;10.672;2024-02-23T00:20:57;9.60;27.60
30134;DHT22;16946;49.984;10.672;2024-02-23T00:21:28;9.60;32.70
30134;DHT22;16946;49.984;10.672;2024-02-23T00:21:58;9.60;30.70
30134;DHT22;16946;49.984;10.672;2024-02-23T00:22:33;9.60;35.30
30134;DHT22;16946;49.984;10.672;2024-02-23T00:23:04;9.60;40.30
30134;DHT22;16946;49.984;10.672;2024-02-23T00:23:34;9.60;42.60
30134;DHT22;16946;49.984;10.672;2024-02-23T00:24:05;9.60;40.80
30134;DHT22;16946;49.984;10.672;2024-02-23T00:24:36;9.50;40.60
30134;DHT22;16946;49.984;10.672;2024-02-23T00:25:07;9.60;43.50
30134;DHT22;16946;49.984;10.672;2024-02-23T00:25:38;9.60;45.30
30134;DHT22;16946;49.984;10.672;2024-02-23T00:26:08;9.60;37.70
30134;DHT22;16946;49.984;10.672;2024-02-23T00:26:39;9.60;34.70
30134;DHT22;16946;49.984;10.672;2024-02-23T00:27:09;9.50;27.00
30134;DHT22;16946;49.984;10.672;2024-02-23T00:27:40;9.50;31.60
30134;DHT22;16946;49.984;10.672;2024-02-23T00:28:12;9.60;33.90
30134;DHT22;16946;49.984;10.672;2024-02-23T00:28:42;9.60;38.70
30134;DHT22;16946;49.984;10.672;2024-02-23T00:29:13;9.60;28.00
30134;DHT22;16946;49.984;10.672;2024-02-23T00:29:43;9.50;15.70
30134;DHT22;16946;49.984;10.672;2024-02-23T00:30:14;9.50;15.00
30134;DHT22;16946;49.984;10.672;2024-02-23T00:30:45;9.50;17.70
30134;DHT22;16946;49.984;10.672;2024-02-23T00:31:15;9.50;15.30
30134;DHT22;16946;49.984;10.672;2024-02-23T00:31:46;9.50;1.00
30134;DHT22;16946;49.984;10.672;2024-02-23T00:32:16;9.50;8.50
30134;DHT22;16946;49.984;10.672;2024-02-23T00:32:47;9.50;17.60
30134;DHT22;16946;49.984;10.672;2024-02-23T00:33:17;9.50;13.60
30134;DHT22;16946;49.984;10.672;2024-02-23T00:33:48;9.50;8.50
30134;DHT22;16946;49.984;10.672;2024-02-23T00:34:19;9.50;7.50
30134;DHT22;16946;49.984;10.672;2024-02-23T00:34:49;9.50;9.20
30134;DHT22;16946;49.984;10.672;2024-02-23T00:35:20;9.40;4.50
30134;DHT22;16946;49.984;10.672;2024-02-23T00:35:50;9.50;6.10
30134;DHT22;16946;49.984;10.672;2024-02-23T00:36:21;9.40;8.10
30134;DHT22;16946;49.984;10.672;2024-02-23T00:36:51;9.40;5.80
30134;DHT22;16946;49.984;10.672;2024-02-23T00:37:22;9.40;3.50
30134;DHT22;16946;49.984;10.672;2024-02-23T00:37:52;9.40;2.00
30134;DHT22;16946;49.984;10.672;2024-02-23T00:38:23;9.40;1.00
30134;DHT22;16946;49.984;10.672;2024-02-23T00:38:53;9.40;1.90
30134;DHT22;16946;49.984;10.672;2024-02-23T00:39:24;9.40;5.20
30134;DHT22;16946;49.984;10.672;2024-02-23T00:39:54;9.40;11.90
30134;DHT22;16946;49.984;10.672;2024-02-23T00:40:25;9.40;7.00
30134;DHT22;16946;49.984;10.672;2024-02-23T00:40:55;9.30;1.00
30134;DHT22;16946;49.984;10.672;2024-02-23T00:41:26;9.30;1.00
30134;DHT22;16946;49.984;10.672;2024-02-23T00:41:57;9.30;1.00
30134;DHT22;16946;49.984;10.672;2024-02-23T00:42:27;9.30;1.00
30134;DHT22;16946;49.984;10.672;2024-02-23T00:42:58;9.20;1.00
30134;DHT22;16946;49.984;10.672;2024-02-23T00:43:37;9.30;1.00
30134;DHT22;16946;49.984;10.672;2024-02-23T00:44:08;9.20;1.00
30134;DHT22;16946;49.984;10.672;2024-02-23T00:44:38;9.30;1.00
30134;DHT22;16946;49.984;10.672;2024-02-23T00:45:09;9.30;1.00
30134;DHT22;16946;49.984;10.672;2024-02-23T00:45:39;9.30;1.00
30134;DHT22;16946;49.984;10.672;2024-02-23T00:46:11;9.20;1.00
30134;DHT22;16946;49.984;10.672;2024-02-23T00:46:42;9.20;1.00
30134;DHT22;16946;49.984;10.672;2024-02-23T00:47:12;9.20;1.00
30134;DHT22;16946;49.984;10.672;2024-02-23T00:47:43;9.20;1.00
30134;DHT22;16946;49.984;10.672;2024-02-23T00:48:13;9.20;1.00
30134;DHT22;16946;49.984;10.672;2024-02-23T00:48:44;9.20;1.00
30134;DHT22;16946;49.984;10.672;2024-02-23T00:49:14;9.10;1.00
30134;DHT22;16946;49.984;10.672;2024-02-23T00:49:45;9.10;99.90
30134;DHT22;16946;49.984;10.672;2024-02-23T00:50:16;9.10;99.90
30134;DHT22;16946;49.984;10.672;2024-02-23T00:50:46;9.10;99.90
30134;DHT22;16946;49.984;10.672;2024-02-23T00:51:17;9.10;99.90
30134;DHT22;16946;49.984;10.672;2024-02-23T00:51:47;9.10;99.90
30134;DHT22;16946;49.984;10.672;2024-02-23T00:52:18;9.10;99.90
30134;DHT22;16946;49.984;10.672;2024-02-23T00:52:48;9.10;99.90
30134;DHT22;16946;49.984;10.672;2024-02-23T00:53:19;9.00;99.90
30134;DHT22;16946;49.984;10.672;2024-02-23T00:53:50;9.00;99.90
30134;DHT22;16946;49.984;10.672;2024-02-23T00:54:22;9.00;99.90
30134;DHT22;16946;49.984;10.672;2024-02-23T00:54:52;9.00;99.90
30134;DHT22;16946;49.984;10.672;2024-02-23T00:55:23;9.00;99.90
30134;DHT22;16946;49.984;10.672;2024-02-23T00:55:55;9.00;99.90
30134;DHT22;16946;49.984;10.672;2024-02-23T00:56:26;9.00;99.90
30134;DHT22;16946;49.984;10.672;2024-02-23T00:56:58;9.00;99.90
30134;DHT22;16946;49.984;10.672;2024-02-23T00:57:28;9.00;99.90
30134;DHT22;16946;49.984;10.672;2024-02-23T00:58:00;9.00;99.90
30134;DHT22;16946;49.984;10.672;2024-02-23T00:58:30;9.00;99.90
30134;DHT22;16946;49.984;10.672;2024-02-23T00:59:01;9.00;99.90
30134;DHT22;16946;49.984;10.672;2024-02-23T00:59:31;9.00;99.90
30134;DHT22;16946;49.984;10.672;2024-02-23T01:00:03;8.90;99.90
30134;DHT22;16946;49.984;10.672;2024-02-23T01:00:35;9.00;99.90
30134;DHT22;16946;49.984;10.672;2024-02-23T01:01:06;8.90;99.90
30134;DHT22;16946;49.984;10.672;2024-02-23T01:01:36;8.90;99.90
30134;DHT22;16946;49.984;10.672;2024-02-23T01:02:07;8.90;99.90
30134;DHT22;16946;49.984;10.672;2024-02-23T01:02:38;8.90;99.90
30134;DHT22;16946;49.984;10.672;2024-02-23T01:03:09;8.90;99.90
30134;DHT22;16946;49.984;10.672;2024-02-23T01:03:39;8.90;99.90
30134;DHT22;16946;49.984;10.672;2024-02-23T01:04:10;8.90;99.90
30134;DHT22;16946;49.984;10.672;2024-02-23T01:04:40;8.90;99.90
30134;DHT22;16946;49.984;10.672;2024-02-23T01:05:11;8.90;99.90
30134;DHT22;16946;49.984;10.672;2024-02-23T01:05:41;8.90;99.90
30134;DHT22;16946;49.984;10.672;2024-02-23T01:06:12;8.90;99.90
30134;DHT22;16946;49.984;10.672;2024-02-23T01:06:43;8.90;99.90
30134;DHT22;16946;49.984;10.672;2024-02-23T01:07:14;8.90;99.90
30134;DHT22;16946;49.984;10.672;2024-02-23T01:07:44;9.00;99.90
30134;DHT22;16946;49.984;10.672;2024-02-23T01:08:15;8.90;99.90
30134;DHT22;16946;49.984;10.672;2024-02-23T01:08:45;8.90;99.90
30134;DHT22;16946;49.984;10.672;2024-02-23T01:09:16;9.00;99.90
30134;DHT22;16946;49.984;10.672;2024-02-23T01:09:51;9.00;99.90
30134;DHT22;16946;49.984;10.672;2024-02-23T01:10:21;9.00;99.90
30134;DHT22;16946;49.984;10.672;2024-02-23T01:10:52;9.00;99.90
30134;DHT22;16946;49.984;10.672;2024-02-23T01:11:23;9.00;99.90
30134;DHT22;16946;49.984;10.672;2024-02-23T01:11:53;9.00;99.90
30134;DHT22;16946;49.984;10.672;2024-02-23T01:12:24;9.00;99.90
30134;DHT22;16946;49.984;10.672;2024-02-23T01:12:54;9.00;1.00
30134;DHT22;16946;49.984;10.672;2024-02-23T01:13:25;9.00;1.00
30134;DHT22;16946;49.984;10.672;2024-02-23T01:13:55;9.00;1.00
30134;DHT22;16946;49.984;10.672;2024-02-23T01:14:27;9.00;1.00
30134;DHT22;16946;49.984;10.672;2024-02-23T01:14:57;9.00;1.00
30134;DHT22;16946;49.984;10.672;2024-02-23T01:15:28;8.90;1.00
30134;DHT22;16946;49.984;10.672;2024-02-23T01:15:58;9.00;1.00
30134;DHT22;16946;49.984;10.672;2024-02-23T01:16:29;9.00;1.00
30134;DHT22;16946;49.984;10.672;2024-02-23T01:16:59;9.00;1.00
30134;DHT22;16946;49.984;10.672;2024-02-23T01:17:30;8.90;1.00
30134;DHT22;16946;49.984;10.672;2024-02-23T01:18:00;8.80;1.00
30134;DHT22;16946;49.984;10.672;2024-02-23T01:18:31;8.80;99.90
30134;DHT22;16946;49.984;10.672;2024-02-23T01:19:01;8.80;99.90
30134;DHT22;16946;49.984;10.672;2024-02-23T01:19:33;8.80;99.90
30134;DHT22;16946;49.984;10.672;2024-02-23T01:20:04;8.80;99.90
30134;DHT22;16946;49.984;10.672;2024-02-23T01:20:35;8.70;99.90
30134;DHT22;16946;49.984;10.672;2024-02-23T01:21:05;8.70;99.90
30134;DHT22;16946;49.984;10.672;2024-02-23T01:21:37;8.70;99.90
30134;DHT22;16946;49.984;10.672;2024-02-23T01:22:07;8.70;99.90
30134;DHT22;16946;49.984;10.672;2024-02-23T01:22:38;8.70;99.90
30134;DHT22;16946;49.984;10.672;2024-02-23T01:23:08;8.70;99.90
30134;DHT22;16946;49.984;10.672;2024-02-23T01:23:39;8.70;99.90
30134;DHT22;16946;49.984;10.672;2024-02-23T01:24:09;8.70;99.90
30134;DHT22;16946;49.984;10.672;2024-02-23T01:24:40;8.70;99.90
30134;DHT22;16946;49.984;10.672;2024-02-23T01:25:10;8.70;1.00
30134;DHT22;16946;49.984;10.672;2024-02-23T01:25:41;8.70;1.00
30134;DHT22;16946;49.984;10.672;2024-02-23T01:26:12;8.60;1.00
30134;DHT22;16946;49.984;10.672;2024-02-23T01:26:43;8.70;1.00
30134;DHT22;16946;49.984;10.672;2024-02-23T01:27:14;8.70;1.00
30134;DHT22;16946;49.984;10.672;2024-02-23T01:27:44;8.70;1.00
30134;DHT22;16946;49.984;10.672;2024-02-23T01:28:15;8.70;1.00
30134;DHT22;16946;49.984;10.672;2024-02-23T01:28:45;8.70;1.00
30134;DHT22;16946;49.984;10.672;2024-02-23T01:29:16;8.70;99.90
30134;DHT22;16946;49.984;10.672;2024-02-23T01:29:47;8.70;99.90
30134;DHT22;16946;49.984;10.672;2024-02-23T01:30:18;8.60;1.00
30134;DHT22;16946;49.984;10.672;2024-02-23T01:30:51;8.60;1.00
30134;DHT22;16946;49.984;10.672;2024-02-23T01:31:22;8.60;1.00
30134;DHT22;16946;49.984;10.672;2024-02-23T01:31:53;8.50;99.90
30134;DHT22;16946;49.984;10.672;2024-02-23T01:32:24;8.60;99.90
30134;DHT22;16946;49.984;10.672;2024-02-23T01:32:55;8.50;99.90
30134;DHT22;16946;49.984;10.672;2024-02-23T01:33:25;8.50;99.90
30134;DHT22;16946;49.984;10.672;2024-02-23T01:33:56;8.50;99.90
30134;DHT22;16946;49.984;10.672;2024-02-23T01:34:26;8.50;99.90
30134;DHT22;16946;49.984;10.672;2024-02-23T01:34:57;8.50;99.90
30134;DHT22;16946;49.984;10.672;2024-02-23T01:35:27;8.50;99.90
30134;DHT22;16946;49.984;10.672;2024-02-23T01:35:59;8.50;99.90
30134;DHT22;16946;49.984;10.672;2024-02-23T01:36:29;8.50;99.90
30134;DHT22;16946;49.984;10.672;2024-02-23T01:37:00;8.50;99.90
30134;DHT22;16946;49.984;10.672;2024-02-23T01:37:30;8.50;99.90
30134;DHT22;16946;49.984;10.672;2024-02-23T01:38:01;8.50;99.90
30134;DHT22;16946;49.984;10.672;2024-02-23T01:38:32;8.50;99.90
30134;DHT22;16946;49.984;10.672;2024-02-23T01:39:03;8.50;99.90
30134;DHT22;16946;49.984;10.672;2024-02-23T01:39:34;8.50;99.90
30134;DHT22;16946;49.984;10.672;2024-02-23T01:40:05;8.50;99.90
30134;DHT22;16946;49.984;10.672;2024-02-23T01:40:36;8.50;99.90
30134;DHT22;16946;49.984;10.672;2024-02-23T01:41:07;8.50;99.90
30134;DHT22;16946;49.984;10.672;2024-02-23T01:41:37;8.50;99.90
30134;DHT22;16946;49.984;10.672;2024-02-23T01:42:08;8.50;99.90
30134;DHT22;16946;49.984;10.672;2024-02-23T01:42:39;8.50;99.90
30134;DHT22;16946;49.984;10.672;2024-02-23T01:43:09;8.40;99.90
30134;DHT22;16946;49.984;10.672;2024-02-23T01:43:40;8.40;99.90
30134;DHT22;16946;49.984;10.672;2024-02-23T01:44:11;8.40;99.90
30134;DHT22;16946;49.984;10.672;2024-02-23T01:44:41;8.40;99.90
30134;DHT22;16946;49.984;10.672;2024-02-23T01:45:12;8.40;99.90
30134;DHT22;16946;49.984;10.672;2024-02-23T01:45:42;8.40;99.90
30134;DHT22;16946;49.984;10.672;2024-02-23T01:46:13;8.40;99.90
30134;DHT22;16946;49.984;10.672;2024-02-23T01:46:47;8.30;99.90
30134;DHT22;16946;49.984;10.672;2024-02-23T01:47:18;8.30;99.90
30134;DHT22;16946;49.984;10.672;2024-02-23T01:47:49;8.30;99.90
30134;DHT22;16946;49.984;10.672;2024-02-23T01:48:20;8.30;99.90
30134;DHT22;16946;49.984;10.672;2024-02-23T01:48:51;8.30;99.90
30134;DHT22;16946;49.984;10.672;2024-02-23T01:49:21;8.30;99.90
30134;DHT22;16946;49.984;10.672;2024-02-23T01:49:53;8.30;99.90
30134;DHT22;16946;49.984;10.672;2024-02-23T01:50:25;8.30;99.90
30134;DHT22;16946;49.984;10.672;2024-02-23T01:50:56;8.40;99.90
30134;DHT22;16946;49.984;10.672;2024-02-23T01:51:27;8.30;99.90
30134;DHT22;16946;49.984;10.672;2024-02-23T01:51:57;8.30;99.90
30134;DHT22;16946;49.984;10.672;2024-02-23T01:52:28;8.40;99.90
30134;DHT22;16946;49.984;10.672;2024-02-23T01:53:01;8.30;99.90
30134;DHT22;16946;49.984;10.672;2024-02-23T01:53:33;8.30;99.90
30134;DHT22;16946;49.984;10.672;2024-02-23T01:54:03;8.30;99.90
30134;DHT22;16946;49.984;10.672;2024-02-23T01:54:34;8.40;99.90
30134;DHT22;16946;49.984;10.672;2024-02-23T01:55:05;8.30;99.90
30134;DHT22;16946;49.984;10.672;2024-02-23T01:55:36;8.30;99.90
30134;DHT22;16946;49.984;10.672;2024-02-23T01:56:07;8.30;99.90
30134;DHT22;16946;49.984;10.672;2024-02-23T01:56:38;8.30;99.90
30134;DHT22;16946;49.984;10.672;2024-02-23T01:57:10;8.30;99.90
30134;DHT22;16946;49.984;10.672;2024-02-23T01:57:41;8.30;99.90
30134;DHT22;16946;49.984;10.672;2024-02-23T01:58:12;8.30;99.90
30134;DHT22;16946;49.984;10.672;2024-02-23T01:58:43;8.30;99.90
30134;DHT22;16946;49.984;10.672;2024-02-23T01:59:14;8.30;99.90
30134;DHT22;16946;49.984;10.672;2024-02-23T01:59:44;8.30;99.90
30134;DHT22;16946;49.984;10.672;2024-02-23T02:00:17;8.30;99.90
30134;DHT22;16946;49.984;10.672;2024-02-23T02:00:48;8.30;99.90
30134;DHT22;16946;49.984;10.672;2024-02-23T02:01:19;8.30;99.90
30134;DHT22;16946;49.984;10.672;2024-02-23T02:01:49;8.30;99.90
30134;DHT22;16946;49.984;10.672;2024-02-23T02:02:20;8.30;99.90
30134;DHT22;16946;49.984;10.672;2024-02-23T02:02:51;8.30;99.90
30134;DHT22;16946;49.984;10.672;2024-02-23T02:03:21;8.30;99.90
30134;DHT22;16946;49.984;10.672;2024-02-23T02:03:52;8.30;99.90
30134;DHT22;16946;49.984;10.672;2024-02-23T02:04:22;8.20;99.90
30134;DHT22;16946;49.984;10.672;2024-02-23T02:04:53;8.20;99.90
30134;DHT22;16946;49.984;10.672;2024-02-23T02:05:23;8.30;99.90
30134;DHT22;16946;49.984;10.672;2024-02-23T02:05:55;8.30;99.90
30134;DHT22;16946;49.984;10.672;2024-02-23T02:06:27;8.30;99.90
30134;DHT22;16946;49.984;10.672;2024-02-23T02:06:59;8.30;99.90
30134;DHT22;16946;49.984;10.672;2024-02-23T02:07:30;8.30;99.90
30134;DHT22;16946;49.984;10.672;2024-02-23T02:08:00;8.30;99.90
30134;DHT22;16946;49.984;10.672;2024-02-23T02:08:31;8.30;99.90
30134;DHT22;16946;49.984;10.672;2024-02-23T02:09:02;8.30;99.90
30134;DHT22;16946;49.984;10.672;2024-02-23T02:09:33;8.30;99.90
30134;DHT22;16946;49.984;10.672;2024-02-23T02:10:05;8.30;99.90
30134;DHT22;16946;49.984;10.672;2024-02-23T02:10:37;8.20;99.90
30134;DHT22;16946;49.984;10.672;2024-02-23T02:11:07;8.20;99.90
30134;DHT22;16946;49.984;10.672;2024-02-23T02:11:47;8.30;99.90
30134;DHT22;16946;49.984;10.672;2024-02-23T02:12:28;8.30;99.90
30134;DHT22;16946;49.984;10.672;2024-02-23T02:13:07;8.20;99.90
30134;DHT22;16946;49.984;10.672;2024-02-23T02:13:38;8.30;99.90
30134;DHT22;16946;49.984;10.672;2024-02-23T02:14:08;8.30;99.90
30134;DHT22;16946;49.984;10.672;2024-02-23T02:14:40;8.20;99.90
30134;DHT22;16946;49.984;10.672;2024-02-23T02:15:11;8.30;99.90
30134;DHT22;16946;49.984;10.672;2024-02-23T02:15:41;8.30;99.90
30134;DHT22;16946;49.984;10.672;2024-02-23T02:16:14;8.30;99.90
30134;DHT22;16946;49.984;10.672;2024-02-23T02:16:44;8.30;99.90
30134;DHT22;16946;49.984;10.672;2024-02-23T02:17:15;8.30;99.90
30134;DHT22;16946;49.984;10.672;2024-02-23T02:17:45;8.30;99.90
30134;DHT22;16946;49.984;10.672;2024-02-23T02:18:16;8.30;99.90
30134;DHT22;16946;49.984;10.672;2024-02-23T02:18:47;8.40;99.90
30134;DHT22;16946;49.984;10.672;2024-02-23T02:19:17;8.30;99.90
30134;DHT22;16946;49.984;10.672;2024-02-23T02:19:48;8.30;99.90
30134;DHT22;16946;49.984;10.672;2024-02-23T02:20:24;8.40;99.90
30134;DHT22;16946;49.984;10.672;2024-02-23T02:20:56;8.40;99.90
30134;DHT22;16946;49.984;10.672;2024-02-23T02:21:27;8.40;99.90
30134;DHT22;16946;49.984;10.672;2024-02-23T02:21:58;8.40;99.90
30134;DHT22;16946;49.984;10.672;2024-02-23T02:22:29;8.40;99.90
30134;DHT22;16946;49.984;10.672;2024-02-23T02:22:59;8.40;99.90
30134;DHT22;16946;49.984;10.672;2024-02-23T02:23:30;8.40;99.90
30134;DHT22;16946;49.984;10.672;2024-02-23T02:24:00;8.40;99.90
30134;DHT22;16946;49.984;10.672;2024-02-23T02:24:31;8.40;99.90
30134;DHT22;16946;49.984;10.672;2024-02-23T02:25:02;8.40;99.90
30134;DHT22;16946;49.984;10.672;2024-02-23T02:25:32;8.40;99.90
30134;DHT22;16946;49.984;10.672;2024-02-23T02:26:03;8.40;99.90
30134;DHT22;16946;49.984;10.672;2024-02-23T02:26:35;8.40;99.90
30134;DHT22;16946;49.984;10.672;2024-02-23T02:27:06;8.40;99.90
30134;DHT22;16946;49.984;10.672;2024-02-23T02:27:37;8.30;99.90
30134;DHT22;16946;49.984;10.672;2024-02-23T02:28:08;8.30;99.90
30134;DHT22;16946;49.984;10.672;2024-02-23T02:28:38;8.30;99.90
30134;DHT22;16946;49.984;10.672;2024-02-23T02:29:09;8.20;99.90
30134;DHT22;16946;49.984;10.672;2024-02-23T02:29:39;8.20;99.90
30134;DHT22;16946;49.984;10.672;2024-02-23T02:30:10;8.20;99.90
30134;DHT22;16946;49.984;10.672;2024-02-23T02:30:41;8.20;99.90
30134;DHT22;16946;49.984;10.672;2024-02-23T02:31:11;8.20;99.90
30134;DHT22;16946;49.984;10.672;2024-02-23T02:31:42;8.20;99.90
30134;DHT22;16946;49.984;10.672;2024-02-23T02:32:12;8.20;99.90
30134;DHT22;16946;49.984;10.672;2024-02-23T02:32:43;8.30;99.90
30134;DHT22;16946;49.984;10.672;2024-02-23T02:33:13;8.30;99.90
30134;DHT22;16946;49.984;10.672;2024-02-23T02:33:44;8.30;99.90
30134;DHT22;16946;49.984;10.672;2024-02-23T02:34:14;8.30;99.90
30134;DHT22;16946;49.984;10.672;2024-02-23T02:34:45;8.30;99.90
30134;DHT22;16946;49.984;10.672;2024-02-23T02:35:15;8.30;99.90
30134;DHT22;16946;49.984;10.672;2024-02-23T02:35:46;8.20;99.90
30134;DHT22;16946;49.984;10.672;2024-02-23T02:36:16;8.20;99.90
30134;DHT22;16946;49.984;10.672;2024-02-23T02:36:47;8.20;99.90
30134;DHT22;16946;49.984;10.672;2024-02-23T02:37:17;8.10;99.90
30134;DHT22;16946;49.984;10.672;2024-02-23T02:37:48;8.10;1.00
30134;DHT22;16946;49.984;10.672;2024-02-23T02:38:19;8.10;1.00
30134;DHT22;16946;49.984;10.672;2024-02-23T02:38:50;8.10;1.00
30134;DHT22;16946;49.984;10.672;2024-02-23T02:39:21;8.10;1.00
30134;DHT22;16946;49.984;10.672;2024-02-23T02:39:51;8.00;1.00
30134;DHT22;16946;49.984;10.672;2024-02-23T02:40:22;8.00;1.00
30134;DHT22;16946;49.984;10.672;2024-02-23T02:40:52;8.00;1.00
30134;DHT22;16946;49.984;10.672;2024-02-23T02:41:24;7.90;1.00
30134;DHT22;16946;49.984;10.672;2024-02-23T02:41:57;7.90;1.00
30134;DHT22;16946;49.984;10.672;2024-02-23T02:42:28;7.90;1.00
30134;DHT22;16946;49.984;10.672;2024-02-23T02:42:59;7.90;1.00
30134;DHT22;16946;49.984;10.672;2024-02-23T02:43:31;7.80;1.00
30134;DHT22;16946;49.984;10.672;2024-02-23T02:44:01;7.90;1.00
30134;DHT22;16946;49.984;10.672;2024-02-23T02:44:32;7.80;1.00
30134;DHT22;16946;49.984;10.672;2024-02-23T02:45:03;7.80;1.00
30134;DHT22;16946;49.984;10.672;2024-02-23T02:45:33;7.80;1.00
30134;DHT22;16946;49.984;10.672;2024-02-23T02:46:04;7.90;1.00
30134;DHT22;16946;49.984;10.672;2024-02-23T02:46:34;7.90;1.00
30134;DHT22;16946;49.984;10.672;2024-02-23T02:47:05;7.80;1.00
30134;DHT22;16946;49.984;10.672;2024-02-23T02:47:36;7.80;1.00
30134;DHT22;16946;49.984;10.672;2024-02-23T02:48:07;7.80;1.00
30134;DHT22;16946;49.984;10.672;2024-02-23T02:48:37;7.80;1.00
30134;DHT22;16946;49.984;10.672;2024-02-23T02:49:08;7.80;1.00
30134;DHT22;16946;49.984;10.672;2024-02-23T02:49:40;7.80;1.00
30134;DHT22;16946;49.984;10.672;2024-02-23T02:50:10;7.80;1.00
30134;DHT22;16946;49.984;10.672;2024-02-23T02:50:41;7.80;1.00
30134;DHT22;16946;49.984;10.672;2024-02-23T02:51:12;7.80;1.00
30134;DHT22;16946;49.984;10.672;2024-02-23T02:51:42;7.80;1.00
30134;DHT22;16946;49.984;10.672;2024-02-23T02:52:12;7.80;1.00
30134;DHT22;16946;49.984;10.672;2024-02-23T02:52:43;7.80;1.00
30134;DHT22;16946;49.984;10.672;2024-02-23T02:53:14;7.80;1.00
30134;DHT22;16946;49.984;10.672;2024-02-23T02:53:44;7.80;1.00
30134;DHT22;16946;49.984;10.672;2024-02-23T02:54:15;7.80;1.00
30134;DHT22;16946;49.984;10.672;2024-02-23T02:54:46;7.80;1.00
30134;DHT22;16946;49.984;10.672;2024-02-23T02:55:17;7.80;1.00
30134;DHT22;16946;49.984;10.672;2024-02-23T02:55:47;7.80;1.00
30134;DHT22;16946;49.984;10.672;2024-02-23T02:56:18;7.70;1.00
30134;DHT22;16946;49.984;10.672;2024-02-23T02:56:48;7.70;1.00
30134;DHT22;16946;49.984;10.672;2024-02-23T02:57:20;7.70;1.00
30134;DHT22;16946;49.984;10.672;2024-02-23T02:57:51;7.70;1.00
30134;DHT22;16946;49.984;10.672;2024-02-23T02:58:22;7.70;1.00
30134;DHT22;16946;49.984;10.672;2024-02-23T02:58:52;7.80;1.00
30134;DHT22;16946;49.984;10.672;2024-02-23T02:59:23;7.80;1.00
30134;DHT22;16946;49.984;10.672;2024-02-23T02:59:54;7.80;1.00
30134;DHT22;16946;49.984;10.672;2024-02-23T03:00:24;7.80;1.00
30134;DHT22;16946;49.984;10.672;2024-02-23T03:00:55;7.80;1.00
30134;DHT22;16946;49.984;10.672;2024-02-23T03:01:25;7.80;1.00
30134;DHT22;16946;49.984;10.672;2024-02-23T03:01:56;7.80;1.00
30134;DHT22;16946;49.984;10.672;2024-02-23T03:02:27;7.70;1.00
30134;DHT22;16946;49.984;10.672;2024-02-23T03:02:58;7.70;1.00
30134;DHT22;16946;49.984;10.672;2024-02-23T03:03:28;7.80;1.00
30134;DHT22;16946;49.984;10.672;2024-02-23T03:03:59;7.80;1.00
30134;DHT22;16946;49.984;10.672;2024-02-23T03:04:29;7.80;1.00
30134;DHT22;16946;49.984;10.672;2024-02-23T03:05:00;7.80;1.00
30134;DHT22;16946;49.984;10.672;2024-02-23T03:05:30;7.80;1.00
30134;DHT22;16946;49.984;10.672;2024-02-23T03:06:01;7.70;1.00
30134;DHT22;16946;49.984;10.672;2024-02-23T03:06:31;7.70;1.00
30134;DHT22;16946;49.984;10.672;2024-02-23T03:07:02;7.70;1.00
30134;DHT22;16946;49.984;10.672;2024-02-23T03:07:32;7.80;1.00
30134;DHT22;16946;49.984;10.672;2024-02-23T03:08:03;7.70;1.00
30134;DHT22;16946;49.984;10.672;2024-02-23T03:08:34;7.70;1.00
30134;DHT22;16946;49.984;10.672;2024-02-23T03:09:04;7.60;1.00
30134;DHT22;16946;49.984;10.672;2024-02-23T03:09:35;7.70;1.00
30134;DHT22;16946;49.984;10.672;2024-02-23T03:10:06;7.60;1.00
30134;DHT22;16946;49.984;10.672;2024-02-23T03:10:36;7.60;1.00
30134;DHT22;16946;49.984;10.672;2024-02-23T03:11:07;7.60;1.00
30134;DHT22;16946;49.984;10.672;2024-02-23T03:11:38;7.60;1.00
30134;DHT22;16946;49.984;10.672;2024-02-23T03:12:10;7.60;1.00
30134;DHT22;16946;49.984;10.672;2024-02-23T03:12:41;7.60;1.00
30134;DHT22;16946;49.984;10.672;2024-02-23T03:13:12;7.60;1.00
30134;DHT22;16946;49.984;10.672;2024-02-23T03:13:42;7.60;1.00
30134;DHT22;16946;49.984;10.672;2024-02-23T03:14:13;7.60;1.00
30134;DHT22;16946;49.984;10.672;2024-02-23T03:14:44;7.60;1.00
30134;DHT22;16946;49.984;10.672;2024-02-23T03:15:15;7.60;1.00
30134;DHT22;16946;49.984;10.672;2024-02-23T03:15:45;7.60;1.00
30134;DHT22;16946;49.984;10.672;2024-02-23T03:16:21;7.60;1.00